sensor_id;sensor_type;location;lat;lon;timestamp;temperature;humidity
21037;DHT22;10677;50.942;4.028;2023-12-07T00:01:40;4.30;99.90
21037;DHT22;10677;50.942;4.028;2023-12-07T00:04:06;4.20;99.90
21037;DHT22;10677;50.942;4.028;2023-12-07T00:06:32;4.20;99.90
21037;DHT22;10677;50.942;4.028;2023-12-07T00:08:57;4.30;99.90
21037;DHT22;10677;50.942;4.028;2023-12-07T00:11:24;4.40;99.90
21037;DHT22;10677;50.942;4.028;2023-12-07T00:13:49;4.50;99.90
21037;DHT22;10677;50.942;4.028;2023-12-07T00:16:15;4.50;99.90
21037;DHT22;10677;50.942;4.028;2023-12-07T00:18:41;4.40;99.90
21037;DHT22;10677;50.942;4.028;2023-12-07T00:21:09;4.40;99.90
21037;DHT22;10677;50.942;4.028;2023-12-07T00:23:36;4.40;99.90
21037;DHT22;10677;50.942;4.028;2023-12-07T00:26:03;4.60;99.90
21037;DHT22;10677;50.942;4.028;2023-12-07T00:28:29;4.60;99.90
21037;DHT22;10677;50.942;4.028;2023-12-07T00:30:55;4.60;99.90
21037;DHT22;10677;50.942;4.028;2023-12-07T00:33:21;4.50;99.90
21037;DHT22;10677;50.942;4.028;2023-12-07T00:35:47;4.50;99.90
21037;DHT22;10677;50.942;4.028;2023-12-07T00:38:13;4.60;99.90
21037;DHT22;10677;50.942;4.028;2023-12-07T00:40:39;4.50;99.90
21037;DHT22;10677;50.942;4.028;2023-12-07T00:43:06;4.50;99.90
21037;DHT22;10677;50.942;4.028;2023-12-07T00:45:31;4.50;99.90
21037;DHT22;10677;50.942;4.028;2023-12-07T00:47:57;4.50;99.90
21037;DHT22;10677;50.942;4.028;2023-12-07T00:50:23;4.70;99.90
21037;DHT22;10677;50.942;4.028;2023-12-07T00:52:48;4.60;99.90
21037;DHT22;10677;50.942;4.028;2023-12-07T00:55:14;4.50;99.90
21037;DHT22;10677;50.942;4.028;2023-12-07T00:57:40;4.50;99.90
21037;DHT22;10677;50.942;4.028;2023-12-07T01:00:06;4.60;99.90
21037;DHT22;10677;50.942;4.028;2023-12-07T01:02:33;4.60;99.90
21037;DHT22;10677;50.942;4.028;2023-12-07T01:04:59;4.70;99.90
21037;DHT22;10677;50.942;4.028;2023-12-07T01:07:24;4.80;99.90
21037;DHT22;10677;50.942;4.028;2023-12-07T01:09:50;4.90;99.90
21037;DHT22;10677;50.942;4.028;2023-12-07T01:12:15;4.90;99.90
21037;DHT22;10677;50.942;4.028;2023-12-07T01:14:41;4.80;99.90
21037;DHT22;10677;50.942;4.028;2023-12-07T01:17:07;4.80;99.90
21037;DHT22;10677;50.942;4.028;2023-12-07T01:19:32;4.90;99.90
21037;DHT22;10677;50.942;4.028;2023-12-07T01:22:00;4.70;99.90
21037;DHT22;10677;50.942;4.028;2023-12-07T01:24:26;4.70;99.90
21037;DHT22;10677;50.942;4.028;2023-12-07T01:26:52;4.70;99.90
21037;DHT22;10677;50.942;4.028;2023-12-07T01:29:17;4.70;99.90
21037;DHT22;10677;50.942;4.028;2023-12-07T01:31:43;4.80;99.90
21037;DHT22;10677;50.942;4.028;2023-12-07T01:34:09;4.80;99.90
21037;DHT22;10677;50.942;4.028;2023-12-07T01:36:35;4.80;99.90
21037;DHT22;10677;50.942;4.028;2023-12-07T01:39:01;4.80;99.90
21037;DHT22;10677;50.942;4.028;2023-12-07T01:41:27;4.70;99.90
21037;DHT22;10677;50.942;4.028;2023-12-07T01:43:52;4.80;99.90
21037;DHT22;10677;50.942;4.028;2023-12-07T01:46:18;4.90;99.90
21037;DHT22;10677;50.942;4.028;2023-12-07T01:48:44;4.90;99.90
21037;DHT22;10677;50.942;4.028;2023-12-07T01:51:14;4.80;99.90
21037;DHT22;10677;50.942;4.028;2023-12-07T01:53:40;4.80;99.90
21037;DHT22;10677;50.942;4.028;2023-12-07T01:56:07;4.80;99.90
21037;DHT22;10677;50.942;4.028;2023-12-07T01:58:34;4.90;99.90
21037;DHT22;10677;50.942;4.028;2023-12-07T02:01:01;5.10;99.90
21037;DHT22;10677;50.942;4.028;2023-12-07T02:03:27;5.20;99.90
21037;DHT22;10677;50.942;4.028;2023-12-07T02:05:53;5.10;99.90
21037;DHT22;10677;50.942;4.028;2023-12-07T02:08:20;5.00;99.90
21037;DHT22;10677;50.942;4.028;2023-12-07T02:10:46;4.80;99.90
21037;DHT22;10677;50.942;4.028;2023-12-07T02:13:12;4.80;99.90
21037;DHT22;10677;50.942;4.028;2023-12-07T02:15:38;4.60;99.90
21037;DHT22;10677;50.942;4.028;2023-12-07T02:18:33;4.80;99.90
21037;DHT22;10677;50.942;4.028;2023-12-07T02:21:16;4.80;99.90
21037;DHT22;10677;50.942;4.028;2023-12-07T02:23:44;4.90;99.90
21037;DHT22;10677;50.942;4.028;2023-12-07T02:26:13;4.90;99.90
21037;DHT22;10677;50.942;4.028;2023-12-07T02:28:43;5.00;99.90
21037;DHT22;10677;50.942;4.028;2023-12-07T02:31:09;4.80;99.90
21037;DHT22;10677;50.942;4.028;2023-12-07T02:33:35;4.90;99.90
21037;DHT22;10677;50.942;4.028;2023-12-07T02:36:01;4.90;99.90
21037;DHT22;10677;50.942;4.028;2023-12-07T02:38:26;4.80;99.90
21037;DHT22;10677;50.942;4.028;2023-12-07T02:40:54;4.80;99.90
21037;DHT22;10677;50.942;4.028;2023-12-07T02:43:21;4.90;99.90
21037;DHT22;10677;50.942;4.028;2023-12-07T02:45:48;4.80;99.90
21037;DHT22;10677;50.942;4.028;2023-12-07T02:48:14;4.80;99.90
21037;DHT22;10677;50.942;4.028;2023-12-07T02:50:40;4.90;99.90
21037;DHT22;10677;50.942;4.028;2023-12-07T02:53:05;5.00;99.90
21037;DHT22;10677;50.942;4.028;2023-12-07T02:55:31;4.90;99.90
21037;DHT22;10677;50.942;4.028;2023-12-07T02:57:57;4.90;99.90
21037;DHT22;10677;50.942;4.028;2023-12-07T03:00:22;4.80;99.90
21037;DHT22;10677;50.942;4.028;2023-12-07T03:02:48;4.70;99.90
21037;DHT22;10677;50.942;4.028;2023-12-07T03:05:15;4.60;99.90
21037;DHT22;10677;50.942;4.028;2023-12-07T03:07:41;4.70;99.90
21037;DHT22;10677;50.942;4.028;2023-12-07T03:10:07;4.80;99.90
21037;DHT22;10677;50.942;4.028;2023-12-07T03:12:33;4.80;99.90
21037;DHT22;10677;50.942;4.028;2023-12-07T03:14:58;5.10;99.90
21037;DHT22;10677;50.942;4.028;2023-12-07T03:17:24;5.00;99.90
21037;DHT22;10677;50.942;4.028;2023-12-07T03:19:50;5.20;99.90
21037;DHT22;10677;50.942;4.028;2023-12-07T03:22:16;5.20;99.90
21037;DHT22;10677;50.942;4.028;2023-12-07T03:24:46;5.10;99.90
21037;DHT22;10677;50.942;4.028;2023-12-07T03:27:13;5.20;99.90
21037;DHT22;10677;50.942;4.028;2023-12-07T03:29:38;5.30;99.90
21037;DHT22;10677;50.942;4.028;2023-12-07T03:32:04;5.30;99.90
21037;DHT22;10677;50.942;4.028;2023-12-07T03:34:30;5.40;99.90
21037;DHT22;10677;50.942;4.028;2023-12-07T03:36:56;5.40;99.90
21037;DHT22;10677;50.942;4.028;2023-12-07T03:39:21;5.40;99.90
21037;DHT22;10677;50.942;4.028;2023-12-07T03:41:48;5.40;99.90
21037;DHT22;10677;50.942;4.028;2023-12-07T03:44:14;5.50;99.90
21037;DHT22;10677;50.942;4.028;2023-12-07T03:46:40;5.40;99.90
21037;DHT22;10677;50.942;4.028;2023-12-07T03:49:05;5.20;99.90
21037;DHT22;10677;50.942;4.028;2023-12-07T03:51:31;5.20;99.90
21037;DHT22;10677;50.942;4.028;2023-12-07T03:53:57;5.30;99.90
21037;DHT22;10677;50.942;4.028;2023-12-07T03:56:30;5.40;99.90
21037;DHT22;10677;50.942;4.028;2023-12-07T03:58:56;5.20;99.90
21037;DHT22;10677;50.942;4.028;2023-12-07T04:01:26;5.30;99.90
21037;DHT22;10677;50.942;4.028;2023-12-07T04:03:52;5.20;99.90
21037;DHT22;10677;50.942;4.028;2023-12-07T04:06:18;5.20;99.90
21037;DHT22;10677;50.942;4.028;2023-12-07T04:08:44;5.20;99.90
21037;DHT22;10677;50.942;4.028;2023-12-07T04:11:12;5.30;99.90
21037;DHT22;10677;50.942;4.028;2023-12-07T04:13:37;5.30;99.90
21037;DHT22;10677;50.942;4.028;2023-12-07T04:16:03;5.20;99.90
21037;DHT22;10677;50.942;4.028;2023-12-07T04:18:29;5.20;99.90
21037;DHT22;10677;50.942;4.028;2023-12-07T04:20:55;5.10;99.90
21037;DHT22;10677;50.942;4.028;2023-12-07T04:23:21;5.20;99.90
21037;DHT22;10677;50.942;4.028;2023-12-07T04:25:46;5.20;99.90
21037;DHT22;10677;50.942;4.028;2023-12-07T04:28:12;5.30;99.90
21037;DHT22;10677;50.942;4.028;2023-12-07T04:30:38;5.40;99.90
21037;DHT22;10677;50.942;4.028;2023-12-07T04:33:04;5.30;99.90
21037;DHT22;10677;50.942;4.028;2023-12-07T04:35:30;5.30;99.90
21037;DHT22;10677;50.942;4.028;2023-12-07T04:37:56;5.20;99.90
21037;DHT22;10677;50.942;4.028;2023-12-07T04:40:22;5.10;99.90
21037;DHT22;10677;50.942;4.028;2023-12-07T04:42:49;5.10;99.90
21037;DHT22;10677;50.942;4.028;2023-12-07T04:45:15;5.00;99.90
21037;DHT22;10677;50.942;4.028;2023-12-07T04:47:40;5.10;99.90
21037;DHT22;10677;50.942;4.028;2023-12-07T04:50:07;5.00;99.90
21037;DHT22;10677;50.942;4.028;2023-12-07T04:52:33;5.00;99.90
21037;DHT22;10677;50.942;4.028;2023-12-07T04:54:59;5.00;99.90
21037;DHT22;10677;50.942;4.028;2023-12-07T04:57:25;5.00;99.90
21037;DHT22;10677;50.942;4.028;2023-12-07T04:59:50;4.90;99.90
21037;DHT22;10677;50.942;4.028;2023-12-07T05:02:17;5.00;99.90
21037;DHT22;10677;50.942;4.028;2023-12-07T05:04:43;5.00;99.90
21037;DHT22;10677;50.942;4.028;2023-12-07T05:07:13;4.90;99.90
21037;DHT22;10677;50.942;4.028;2023-12-07T05:09:39;4.80;99.90
21037;DHT22;10677;50.942;4.028;2023-12-07T05:12:06;4.80;99.90
21037;DHT22;10677;50.942;4.028;2023-12-07T05:14:32;4.90;99.90
21037;DHT22;10677;50.942;4.028;2023-12-07T05:16:58;4.90;99.90
21037;DHT22;10677;50.942;4.028;2023-12-07T05:19:24;4.80;99.90
21037;DHT22;10677;50.942;4.028;2023-12-07T05:21:51;4.80;99.90
21037;DHT22;10677;50.942;4.028;2023-12-07T05:24:17;4.80;99.90
21037;DHT22;10677;50.942;4.028;2023-12-07T05:26:43;4.70;99.90
21037;DHT22;10677;50.942;4.028;2023-12-07T05:29:11;4.70;99.90
21037;DHT22;10677;50.942;4.028;2023-12-07T05:31:37;4.60;99.90
21037;DHT22;10677;50.942;4.028;2023-12-07T05:34:03;4.60;99.90
21037;DHT22;10677;50.942;4.028;2023-12-07T05:36:29;4.60;99.90
21037;DHT22;10677;50.942;4.028;2023-12-07T05:38:54;4.60;99.90
21037;DHT22;10677;50.942;4.028;2023-12-07T05:41:20;4.50;99.90
21037;DHT22;10677;50.942;4.028;2023-12-07T05:43:46;4.60;99.90
21037;DHT22;10677;50.942;4.028;2023-12-07T05:46:11;4.60;99.90
21037;DHT22;10677;50.942;4.028;2023-12-07T05:48:37;4.50;99.90
21037;DHT22;10677;50.942;4.028;2023-12-07T05:51:03;4.40;99.90
21037;DHT22;10677;50.942;4.028;2023-12-07T05:53:29;4.40;99.90
21037;DHT22;10677;50.942;4.028;2023-12-07T05:55:55;4.50;99.90
21037;DHT22;10677;50.942;4.028;2023-12-07T05:58:21;4.50;99.90
21037;DHT22;10677;50.942;4.028;2023-12-07T06:00:46;4.50;99.90
21037;DHT22;10677;50.942;4.028;2023-12-07T06:03:15;4.60;99.90
21037;DHT22;10677;50.942;4.028;2023-12-07T06:05:41;4.60;99.90
21037;DHT22;10677;50.942;4.028;2023-12-07T06:08:07;4.70;99.90
21037;DHT22;10677;50.942;4.028;2023-12-07T06:10:33;4.70;99.90
21037;DHT22;10677;50.942;4.028;2023-12-07T06:12:58;4.80;99.90
21037;DHT22;10677;50.942;4.028;2023-12-07T06:15:26;4.90;99.90
21037;DHT22;10677;50.942;4.028;2023-12-07T06:17:53;4.80;99.90
21037;DHT22;10677;50.942;4.028;2023-12-07T06:20:19;4.90;99.90
21037;DHT22;10677;50.942;4.028;2023-12-07T06:22:45;4.90;99.90
21037;DHT22;10677;50.942;4.028;2023-12-07T06:25:11;4.90;99.90
21037;DHT22;10677;50.942;4.028;2023-12-07T06:27:38;4.90;99.90
21037;DHT22;10677;50.942;4.028;2023-12-07T06:30:05;5.00;99.90
21037;DHT22;10677;50.942;4.028;2023-12-07T06:32:35;4.90;99.90
21037;DHT22;10677;50.942;4.028;2023-12-07T06:35:01;4.90;99.90
21037;DHT22;10677;50.942;4.028;2023-12-07T06:37:26;5.00;99.90
21037;DHT22;10677;50.942;4.028;2023-12-07T06:39:52;5.10;99.90
21037;DHT22;10677;50.942;4.028;2023-12-07T06:42:18;5.20;99.90
21037;DHT22;10677;50.942;4.028;2023-12-07T06:44:46;5.30;99.90
21037;DHT22;10677;50.942;4.028;2023-12-07T06:47:14;5.20;99.90
21037;DHT22;10677;50.942;4.028;2023-12-07T06:49:39;5.30;99.90
21037;DHT22;10677;50.942;4.028;2023-12-07T06:52:05;5.30;99.90
21037;DHT22;10677;50.942;4.028;2023-12-07T06:54:31;5.20;99.90
21037;DHT22;10677;50.942;4.028;2023-12-07T06:56:56;5.30;99.90
21037;DHT22;10677;50.942;4.028;2023-12-07T06:59:22;5.30;99.90
21037;DHT22;10677;50.942;4.028;2023-12-07T07:01:48;5.30;99.90
21037;DHT22;10677;50.942;4.028;2023-12-07T07:04:14;5.30;99.90
21037;DHT22;10677;50.942;4.028;2023-12-07T07:06:40;5.30;99.90
21037;DHT22;10677;50.942;4.028;2023-12-07T07:09:06;5.40;99.90
21037;DHT22;10677;50.942;4.028;2023-12-07T07:11:32;5.30;99.90
21037;DHT22;10677;50.942;4.028;2023-12-07T07:13:59;5.30;99.90
21037;DHT22;10677;50.942;4.028;2023-12-07T07:16:25;5.30;99.90
21037;DHT22;10677;50.942;4.028;2023-12-07T07:18:52;5.30;99.90
21037;DHT22;10677;50.942;4.028;2023-12-07T07:21:18;5.40;99.90
21037;DHT22;10677;50.942;4.028;2023-12-07T07:23:47;5.50;99.90
21037;DHT22;10677;50.942;4.028;2023-12-07T07:26:13;5.50;99.90
21037;DHT22;10677;50.942;4.028;2023-12-07T07:28:44;5.40;99.90
21037;DHT22;10677;50.942;4.028;2023-12-07T07:31:09;5.20;99.90
21037;DHT22;10677;50.942;4.028;2023-12-07T07:33:35;5.20;99.90
21037;DHT22;10677;50.942;4.028;2023-12-07T07:36:01;5.30;99.90
21037;DHT22;10677;50.942;4.028;2023-12-07T07:38:26;5.30;99.90
21037;DHT22;10677;50.942;4.028;2023-12-07T07:40:52;5.50;99.90
21037;DHT22;10677;50.942;4.028;2023-12-07T07:43:18;5.60;99.90
21037;DHT22;10677;50.942;4.028;2023-12-07T07:45:44;5.60;99.90
21037;DHT22;10677;50.942;4.028;2023-12-07T07:48:11;5.40;99.90
21037;DHT22;10677;50.942;4.028;2023-12-07T07:50:38;5.40;99.90
21037;DHT22;10677;50.942;4.028;2023-12-07T07:53:04;5.40;99.90
21037;DHT22;10677;50.942;4.028;2023-12-07T07:55:30;5.40;99.90
21037;DHT22;10677;50.942;4.028;2023-12-07T07:57:56;5.30;99.90
21037;DHT22;10677;50.942;4.028;2023-12-07T08:00:22;5.30;99.90
21037;DHT22;10677;50.942;4.028;2023-12-07T08:02:51;5.30;99.90
21037;DHT22;10677;50.942;4.028;2023-12-07T08:05:17;5.30;99.90
21037;DHT22;10677;50.942;4.028;2023-12-07T08:07:43;5.30;99.90
21037;DHT22;10677;50.942;4.028;2023-12-07T08:10:08;5.40;99.90
21037;DHT22;10677;50.942;4.028;2023-12-07T08:12:34;5.50;99.90
21037;DHT22;10677;50.942;4.028;2023-12-07T08:15:01;5.40;99.90
21037;DHT22;10677;50.942;4.028;2023-12-07T08:17:27;5.60;99.90
21037;DHT22;10677;50.942;4.028;2023-12-07T08:19:53;5.50;99.90
21037;DHT22;10677;50.942;4.028;2023-12-07T08:22:19;5.50;99.90
21037;DHT22;10677;50.942;4.028;2023-12-07T08:24:45;5.60;99.90
21037;DHT22;10677;50.942;4.028;2023-12-07T08:27:11;5.60;99.90
21037;DHT22;10677;50.942;4.028;2023-12-07T08:29:37;5.60;99.90
21037;DHT22;10677;50.942;4.028;2023-12-07T08:32:03;5.60;99.90
21037;DHT22;10677;50.942;4.028;2023-12-07T08:34:29;5.60;99.90
21037;DHT22;10677;50.942;4.028;2023-12-07T08:36:55;5.60;99.90
21037;DHT22;10677;50.942;4.028;2023-12-07T08:39:21;5.60;99.90
21037;DHT22;10677;50.942;4.028;2023-12-07T08:41:46;5.70;99.90
21037;DHT22;10677;50.942;4.028;2023-12-07T08:44:12;5.70;99.90
21037;DHT22;10677;50.942;4.028;2023-12-07T08:46:38;5.80;99.90
21037;DHT22;10677;50.942;4.028;2023-12-07T08:49:04;5.80;99.90
21037;DHT22;10677;50.942;4.028;2023-12-07T08:51:30;5.90;99.90
21037;DHT22;10677;50.942;4.028;2023-12-07T08:53:57;5.90;99.90
21037;DHT22;10677;50.942;4.028;2023-12-07T08:56:23;5.80;99.90
21037;DHT22;10677;50.942;4.028;2023-12-07T08:58:49;5.80;99.90
21037;DHT22;10677;50.942;4.028;2023-12-07T09:01:15;5.70;99.90
21037;DHT22;10677;50.942;4.028;2023-12-07T09:03:41;5.70;99.90
21037;DHT22;10677;50.942;4.028;2023-12-07T09:06:07;5.60;99.90
21037;DHT22;10677;50.942;4.028;2023-12-07T09:08:33;5.60;99.90
21037;DHT22;10677;50.942;4.028;2023-12-07T09:11:00;5.70;99.90
21037;DHT22;10677;50.942;4.028;2023-12-07T09:13:26;5.70;99.90
21037;DHT22;10677;50.942;4.028;2023-12-07T09:15:53;5.80;99.90
21037;DHT22;10677;50.942;4.028;2023-12-07T09:18:19;5.70;99.90
21037;DHT22;10677;50.942;4.028;2023-12-07T09:20:45;5.60;99.90
21037;DHT22;10677;50.942;4.028;2023-12-07T09:23:13;5.60;99.90
21037;DHT22;10677;50.942;4.028;2023-12-07T09:25:41;5.60;99.90
21037;DHT22;10677;50.942;4.028;2023-12-07T09:28:07;5.60;99.90
21037;DHT22;10677;50.942;4.028;2023-12-07T09:30:33;5.60;99.90
21037;DHT22;10677;50.942;4.028;2023-12-07T09:33:00;5.60;99.90
21037;DHT22;10677;50.942;4.028;2023-12-07T09:35:28;5.70;99.90
21037;DHT22;10677;50.942;4.028;2023-12-07T09:37:54;5.80;99.90
21037;DHT22;10677;50.942;4.028;2023-12-07T09:40:21;5.80;99.90
21037;DHT22;10677;50.942;4.028;2023-12-07T09:42:48;5.70;99.90
21037;DHT22;10677;50.942;4.028;2023-12-07T09:45:15;5.70;99.90
21037;DHT22;10677;50.942;4.028;2023-12-07T09:47:47;5.60;99.90
21037;DHT22;10677;50.942;4.028;2023-12-07T09:50:19;5.50;99.90
21037;DHT22;10677;50.942;4.028;2023-12-07T09:52:48;5.70;99.90
21037;DHT22;10677;50.942;4.028;2023-12-07T09:55:16;5.80;99.90
21037;DHT22;10677;50.942;4.028;2023-12-07T09:57:42;5.90;99.90
21037;DHT22;10677;50.942;4.028;2023-12-07T10:00:08;6.00;99.90
21037;DHT22;10677;50.942;4.028;2023-12-07T10:02:38;6.00;99.90
21037;DHT22;10677;50.942;4.028;2023-12-07T10:05:09;6.00;99.90
21037;DHT22;10677;50.942;4.028;2023-12-07T10:08:03;6.00;99.90
21037;DHT22;10677;50.942;4.028;2023-12-07T10:10:29;6.10;99.90
21037;DHT22;10677;50.942;4.028;2023-12-07T10:12:56;6.20;99.90
21037;DHT22;10677;50.942;4.028;2023-12-07T10:15:25;6.30;99.90
21037;DHT22;10677;50.942;4.028;2023-12-07T10:17:56;6.30;99.90
21037;DHT22;10677;50.942;4.028;2023-12-07T10:20:24;6.30;99.90
21037;DHT22;10677;50.942;4.028;2023-12-07T10:23:10;6.30;99.90
21037;DHT22;10677;50.942;4.028;2023-12-07T10:25:41;6.30;99.90
21037;DHT22;10677;50.942;4.028;2023-12-07T10:28:08;6.40;99.90
21037;DHT22;10677;50.942;4.028;2023-12-07T10:30:36;6.50;99.90
21037;DHT22;10677;50.942;4.028;2023-12-07T10:33:05;6.60;99.90
21037;DHT22;10677;50.942;4.028;2023-12-07T10:35:33;6.60;99.90
21037;DHT22;10677;50.942;4.028;2023-12-07T10:37:59;6.70;99.90
21037;DHT22;10677;50.942;4.028;2023-12-07T10:40:25;6.50;99.90
21037;DHT22;10677;50.942;4.028;2023-12-07T10:42:56;6.60;99.90
21037;DHT22;10677;50.942;4.028;2023-12-07T10:45:27;6.50;99.90
21037;DHT22;10677;50.942;4.028;2023-12-07T10:48:00;6.50;99.90
21037;DHT22;10677;50.942;4.028;2023-12-07T10:50:35;6.50;99.90
21037;DHT22;10677;50.942;4.028;2023-12-07T10:53:14;6.40;99.90
21037;DHT22;10677;50.942;4.028;2023-12-07T10:56:00;6.40;99.90
21037;DHT22;10677;50.942;4.028;2023-12-07T10:58:26;6.50;99.90
21037;DHT22;10677;50.942;4.028;2023-12-07T11:00:53;6.60;99.90
21037;DHT22;10677;50.942;4.028;2023-12-07T11:03:20;6.70;99.90
21037;DHT22;10677;50.942;4.028;2023-12-07T11:05:47;6.80;99.90
21037;DHT22;10677;50.942;4.028;2023-12-07T11:11:06;6.80;99.90
21037;DHT22;10677;50.942;4.028;2023-12-07T11:13:36;7.00;99.90
21037;DHT22;10677;50.942;4.028;2023-12-07T11:16:03;7.00;99.90
21037;DHT22;10677;50.942;4.028;2023-12-07T11:18:29;7.10;99.90
21037;DHT22;10677;50.942;4.028;2023-12-07T11:20:56;7.10;99.90
21037;DHT22;10677;50.942;4.028;2023-12-07T11:23:22;7.10;99.90
21037;DHT22;10677;50.942;4.028;2023-12-07T11:25:48;7.10;99.90
21037;DHT22;10677;50.942;4.028;2023-12-07T11:28:15;7.20;99.90
21037;DHT22;10677;50.942;4.028;2023-12-07T11:30:47;7.20;99.90
21037;DHT22;10677;50.942;4.028;2023-12-07T11:33:15;7.20;99.90
21037;DHT22;10677;50.942;4.028;2023-12-07T11:36:11;7.30;99.90
21037;DHT22;10677;50.942;4.028;2023-12-07T11:38:39;7.50;99.90
21037;DHT22;10677;50.942;4.028;2023-12-07T11:41:24;7.50;99.90
21037;DHT22;10677;50.942;4.028;2023-12-07T11:43:58;7.50;99.90
21037;DHT22;10677;50.942;4.028;2023-12-07T11:46:25;7.40;99.90
21037;DHT22;10677;50.942;4.028;2023-12-07T11:48:51;7.30;99.90
21037;DHT22;10677;50.942;4.028;2023-12-07T11:51:17;7.30;99.90
21037;DHT22;10677;50.942;4.028;2023-12-07T11:53:43;7.30;99.90
21037;DHT22;10677;50.942;4.028;2023-12-07T11:56:10;7.30;99.90
21037;DHT22;10677;50.942;4.028;2023-12-07T11:58:38;7.30;99.90
21037;DHT22;10677;50.942;4.028;2023-12-07T12:01:05;7.40;99.90
21037;DHT22;10677;50.942;4.028;2023-12-07T12:03:32;7.20;99.90
21037;DHT22;10677;50.942;4.028;2023-12-07T12:05:58;7.30;99.90
21037;DHT22;10677;50.942;4.028;2023-12-07T12:08:24;7.40;99.90
21037;DHT22;10677;50.942;4.028;2023-12-07T12:10:51;7.50;99.90
21037;DHT22;10677;50.942;4.028;2023-12-07T12:13:18;7.60;99.90
21037;DHT22;10677;50.942;4.028;2023-12-07T12:15:47;7.60;99.90
21037;DHT22;10677;50.942;4.028;2023-12-07T12:18:12;7.70;99.90
21037;DHT22;10677;50.942;4.028;2023-12-07T12:20:39;7.70;99.90
21037;DHT22;10677;50.942;4.028;2023-12-07T12:23:05;7.80;99.90
21037;DHT22;10677;50.942;4.028;2023-12-07T12:25:32;7.90;99.90
21037;DHT22;10677;50.942;4.028;2023-12-07T12:28:01;8.00;99.90
21037;DHT22;10677;50.942;4.028;2023-12-07T12:30:28;8.10;99.90
21037;DHT22;10677;50.942;4.028;2023-12-07T12:32:55;8.30;99.90
21037;DHT22;10677;50.942;4.028;2023-12-07T12:35:21;8.30;99.90
21037;DHT22;10677;50.942;4.028;2023-12-07T12:37:49;8.30;99.90
21037;DHT22;10677;50.942;4.028;2023-12-07T12:40:17;8.50;99.90
21037;DHT22;10677;50.942;4.028;2023-12-07T12:42:52;8.60;99.90
21037;DHT22;10677;50.942;4.028;2023-12-07T12:45:19;8.60;99.90
21037;DHT22;10677;50.942;4.028;2023-12-07T12:47:46;8.50;99.90
21037;DHT22;10677;50.942;4.028;2023-12-07T12:50:31;8.50;99.90
21037;DHT22;10677;50.942;4.028;2023-12-07T12:53:03;8.40;99.90
21037;DHT22;10677;50.942;4.028;2023-12-07T12:55:32;8.40;99.90
21037;DHT22;10677;50.942;4.028;2023-12-07T12:57:58;8.30;99.90
21037;DHT22;10677;50.942;4.028;2023-12-07T13:00:25;8.20;99.90
21037;DHT22;10677;50.942;4.028;2023-12-07T13:02:51;8.30;99.90
21037;DHT22;10677;50.942;4.028;2023-12-07T13:05:16;8.10;99.90
21037;DHT22;10677;50.942;4.028;2023-12-07T13:07:44;7.90;99.90
21037;DHT22;10677;50.942;4.028;2023-12-07T13:10:10;7.80;99.90
21037;DHT22;10677;50.942;4.028;2023-12-07T13:12:36;7.80;99.90
21037;DHT22;10677;50.942;4.028;2023-12-07T13:15:02;7.80;99.90
21037;DHT22;10677;50.942;4.028;2023-12-07T13:17:27;7.90;99.90
21037;DHT22;10677;50.942;4.028;2023-12-07T13:19:53;8.00;99.90
21037;DHT22;10677;50.942;4.028;2023-12-07T13:22:19;8.00;99.90
21037;DHT22;10677;50.942;4.028;2023-12-07T13:24:48;8.10;99.90
21037;DHT22;10677;50.942;4.028;2023-12-07T13:27:13;8.00;99.90
21037;DHT22;10677;50.942;4.028;2023-12-07T13:29:41;8.00;99.90
21037;DHT22;10677;50.942;4.028;2023-12-07T13:32:07;8.10;99.90
21037;DHT22;10677;50.942;4.028;2023-12-07T13:34:33;8.10;99.90
21037;DHT22;10677;50.942;4.028;2023-12-07T13:36:59;8.20;99.90
21037;DHT22;10677;50.942;4.028;2023-12-07T13:39:25;8.10;99.90
21037;DHT22;10677;50.942;4.028;2023-12-07T13:41:52;8.00;99.90
21037;DHT22;10677;50.942;4.028;2023-12-07T13:44:18;8.00;99.90
21037;DHT22;10677;50.942;4.028;2023-12-07T13:46:44;7.90;99.90
21037;DHT22;10677;50.942;4.028;2023-12-07T13:49:11;7.90;99.90
21037;DHT22;10677;50.942;4.028;2023-12-07T13:51:38;7.80;99.90
21037;DHT22;10677;50.942;4.028;2023-12-07T13:54:04;7.60;99.90
21037;DHT22;10677;50.942;4.028;2023-12-07T13:56:30;7.70;99.90
21037;DHT22;10677;50.942;4.028;2023-12-07T13:58:56;7.70;99.90
21037;DHT22;10677;50.942;4.028;2023-12-07T14:01:21;7.60;99.90
21037;DHT22;10677;50.942;4.028;2023-12-07T14:03:47;7.70;99.90
21037;DHT22;10677;50.942;4.028;2023-12-07T14:06:22;7.70;99.90
21037;DHT22;10677;50.942;4.028;2023-12-07T14:08:49;7.80;99.90
21037;DHT22;10677;50.942;4.028;2023-12-07T14:11:15;7.90;99.90
21037;DHT22;10677;50.942;4.028;2023-12-07T14:13:41;7.90;99.90
21037;DHT22;10677;50.942;4.028;2023-12-07T14:16:07;8.00;99.90
21037;DHT22;10677;50.942;4.028;2023-12-07T14:18:34;8.00;99.90
21037;DHT22;10677;50.942;4.028;2023-12-07T14:21:00;8.00;99.90
21037;DHT22;10677;50.942;4.028;2023-12-07T14:23:26;8.00;99.90
21037;DHT22;10677;50.942;4.028;2023-12-07T14:25:52;8.00;99.90
21037;DHT22;10677;50.942;4.028;2023-12-07T14:28:17;7.90;99.90
21037;DHT22;10677;50.942;4.028;2023-12-07T14:30:44;7.80;99.90
21037;DHT22;10677;50.942;4.028;2023-12-07T14:33:10;7.90;99.90
21037;DHT22;10677;50.942;4.028;2023-12-07T14:35:36;8.10;99.90
21037;DHT22;10677;50.942;4.028;2023-12-07T14:38:07;7.90;99.90
21037;DHT22;10677;50.942;4.028;2023-12-07T14:40:47;7.80;99.90
21037;DHT22;10677;50.942;4.028;2023-12-07T14:43:14;7.80;99.90
21037;DHT22;10677;50.942;4.028;2023-12-07T14:45:40;7.70;99.90
21037;DHT22;10677;50.942;4.028;2023-12-07T14:48:06;7.60;99.90
21037;DHT22;10677;50.942;4.028;2023-12-07T14:50:31;7.60;99.90
21037;DHT22;10677;50.942;4.028;2023-12-07T14:52:58;7.60;99.90
21037;DHT22;10677;50.942;4.028;2023-12-07T14:55:24;7.70;99.90
21037;DHT22;10677;50.942;4.028;2023-12-07T14:57:50;7.60;99.90
21037;DHT22;10677;50.942;4.028;2023-12-07T15:00:16;7.50;99.90
21037;DHT22;10677;50.942;4.028;2023-12-07T15:02:43;7.50;99.90
21037;DHT22;10677;50.942;4.028;2023-12-07T15:05:09;7.50;99.90
21037;DHT22;10677;50.942;4.028;2023-12-07T15:07:35;7.40;99.90
21037;DHT22;10677;50.942;4.028;2023-12-07T15:10:00;7.40;99.90
21037;DHT22;10677;50.942;4.028;2023-12-07T15:12:26;7.40;99.90
21037;DHT22;10677;50.942;4.028;2023-12-07T15:14:52;7.50;99.90
21037;DHT22;10677;50.942;4.028;2023-12-07T15:17:18;7.60;99.90
21037;DHT22;10677;50.942;4.028;2023-12-07T15:19:43;7.70;99.90
21037;DHT22;10677;50.942;4.028;2023-12-07T15:22:10;7.70;99.90
21037;DHT22;10677;50.942;4.028;2023-12-07T15:24:36;7.80;99.90
21037;DHT22;10677;50.942;4.028;2023-12-07T15:27:05;7.80;99.90
21037;DHT22;10677;50.942;4.028;2023-12-07T15:29:32;7.70;99.90
21037;DHT22;10677;50.942;4.028;2023-12-07T15:32:07;7.60;99.90
21037;DHT22;10677;50.942;4.028;2023-12-07T15:34:33;7.60;99.90
21037;DHT22;10677;50.942;4.028;2023-12-07T15:37:00;7.50;99.90
21037;DHT22;10677;50.942;4.028;2023-12-07T15:39:26;7.40;99.90
21037;DHT22;10677;50.942;4.028;2023-12-07T15:41:52;7.30;99.90
21037;DHT22;10677;50.942;4.028;2023-12-07T15:44:17;7.20;99.90
21037;DHT22;10677;50.942;4.028;2023-12-07T15:46:43;7.20;99.90